sensor_id;sensor_type;location;lat;lon;timestamp;temperature;humidity
35700;DHT22;21818;51.078;12.108;2022-09-03T00:00:48;18.80;73.30
35700;DHT22;21818;51.078;12.108;2022-09-03T00:09:33;18.70;73.60
35700;DHT22;21818;51.078;12.108;2022-09-03T00:14:31;18.60;73.70
35700;DHT22;21818;51.078;12.108;2022-09-03T00:17:02;18.60;73.80
35700;DHT22;21818;51.078;12.108;2022-09-03T00:19:33;18.60;73.80
35700;DHT22;21818;51.078;12.108;2022-09-03T00:22:08;18.60;73.90
35700;DHT22;21818;51.078;12.108;2022-09-03T00:24:38;18.50;73.80
35700;DHT22;21818;51.078;12.108;2022-09-03T00:27:10;18.50;73.90
35700;DHT22;21818;51.078;12.108;2022-09-03T00:29:42;18.50;74.00
35700;DHT22;21818;51.078;12.108;2022-09-03T00:32:17;18.50;73.90
35700;DHT22;21818;51.078;12.108;2022-09-03T00:34:48;18.40;73.90
35700;DHT22;21818;51.078;12.108;2022-09-03T00:37:15;18.50;74.00
35700;DHT22;21818;51.078;12.108;2022-09-03T00:39:40;18.50;73.90
35700;DHT22;21818;51.078;12.108;2022-09-03T00:42:38;18.50;74.00
35700;DHT22;21818;51.078;12.108;2022-09-03T00:45:26;18.50;74.10
35700;DHT22;21818;51.078;12.108;2022-09-03T00:53:24;18.50;74.10
35700;DHT22;21818;51.078;12.108;2022-09-03T01:02:11;18.50;74.00
35700;DHT22;21818;51.078;12.108;2022-09-03T01:05:02;18.50;74.10
35700;DHT22;21818;51.078;12.108;2022-09-03T01:13:11;18.40;74.20
35700;DHT22;21818;51.078;12.108;2022-09-03T01:18:30;18.40;74.20
35700;DHT22;21818;51.078;12.108;2022-09-03T01:21:47;18.40;74.20
35700;DHT22;21818;51.078;12.108;2022-09-03T01:29:47;18.30;74.60
35700;DHT22;21818;51.078;12.108;2022-09-03T01:35:11;18.40;74.50
35700;DHT22;21818;51.078;12.108;2022-09-03T01:38:05;18.40;74.50
35700;DHT22;21818;51.078;12.108;2022-09-03T01:41:33;18.30;74.70
35700;DHT22;21818;51.078;12.108;2022-09-03T01:46:41;18.30;74.90
35700;DHT22;21818;51.078;12.108;2022-09-03T01:51:55;18.30;75.00
35700;DHT22;21818;51.078;12.108;2022-09-03T01:54:44;18.30;75.00
35700;DHT22;21818;51.078;12.108;2022-09-03T02:00:03;18.10;75.40
35700;DHT22;21818;51.078;12.108;2022-09-03T02:02:29;18.10;75.50
35700;DHT22;21818;51.078;12.108;2022-09-03T02:10:14;18.10;75.60
35700;DHT22;21818;51.078;12.108;2022-09-03T02:12:44;18.10;75.70
35700;DHT22;21818;51.078;12.108;2022-09-03T02:15:14;18.20;75.80
35700;DHT22;21818;51.078;12.108;2022-09-03T02:17:42;18.10;75.80
35700;DHT22;21818;51.078;12.108;2022-09-03T02:20:11;18.10;75.80
35700;DHT22;21818;51.078;12.108;2022-09-03T02:22:39;18.20;75.90
35700;DHT22;21818;51.078;12.108;2022-09-03T02:25:06;18.20;75.90
35700;DHT22;21818;51.078;12.108;2022-09-03T02:27:32;18.20;76.00
35700;DHT22;21818;51.078;12.108;2022-09-03T02:29:59;18.10;76.00
35700;DHT22;21818;51.078;12.108;2022-09-03T02:32:24;18.20;76.00
35700;DHT22;21818;51.078;12.108;2022-09-03T02:34:51;18.10;76.00
35700;DHT22;21818;51.078;12.108;2022-09-03T02:37:17;18.10;76.00
35700;DHT22;21818;51.078;12.108;2022-09-03T02:39:44;18.10;76.00
35700;DHT22;21818;51.078;12.108;2022-09-03T02:42:11;18.10;76.30
35700;DHT22;21818;51.078;12.108;2022-09-03T02:45:09;18.10;76.20
35700;DHT22;21818;51.078;12.108;2022-09-03T02:47:40;18.20;76.10
35700;DHT22;21818;51.078;12.108;2022-09-03T02:50:07;18.20;76.10
35700;DHT22;21818;51.078;12.108;2022-09-03T02:52:32;18.20;76.10
35700;DHT22;21818;51.078;12.108;2022-09-03T02:54:58;18.20;76.10
35700;DHT22;21818;51.078;12.108;2022-09-03T02:57:23;18.20;76.00
35700;DHT22;21818;51.078;12.108;2022-09-03T02:59:49;18.30;76.00
35700;DHT22;21818;51.078;12.108;2022-09-03T03:02:14;18.30;76.10
35700;DHT22;21818;51.078;12.108;2022-09-03T03:04:40;18.20;76.20
35700;DHT22;21818;51.078;12.108;2022-09-03T03:07:06;18.20;76.30
35700;DHT22;21818;51.078;12.108;2022-09-03T03:09:32;18.20;76.40
35700;DHT22;21818;51.078;12.108;2022-09-03T03:11:57;18.10;76.40
35700;DHT22;21818;51.078;12.108;2022-09-03T03:14:23;18.20;76.50
35700;DHT22;21818;51.078;12.108;2022-09-03T03:16:49;18.10;76.50
35700;DHT22;21818;51.078;12.108;2022-09-03T03:19:15;18.10;76.60
35700;DHT22;21818;51.078;12.108;2022-09-03T03:21:41;18.10;76.60
35700;DHT22;21818;51.078;12.108;2022-09-03T03:24:07;18.10;76.60
35700;DHT22;21818;51.078;12.108;2022-09-03T03:26:33;18.10;76.70
35700;DHT22;21818;51.078;12.108;2022-09-03T03:29:00;18.10;76.60
35700;DHT22;21818;51.078;12.108;2022-09-03T03:31:26;18.10;76.70
35700;DHT22;21818;51.078;12.108;2022-09-03T03:33:53;18.10;76.70
35700;DHT22;21818;51.078;12.108;2022-09-03T03:36:20;18.10;76.70
35700;DHT22;21818;51.078;12.108;2022-09-03T03:38:46;18.00;76.70
35700;DHT22;21818;51.078;12.108;2022-09-03T03:41:17;18.00;76.80
35700;DHT22;21818;51.078;12.108;2022-09-03T03:43:43;17.90;76.80
35700;DHT22;21818;51.078;12.108;2022-09-03T03:46:10;17.90;76.80
35700;DHT22;21818;51.078;12.108;2022-09-03T03:48:36;17.90;76.90
35700;DHT22;21818;51.078;12.108;2022-09-03T03:51:04;17.90;76.90
35700;DHT22;21818;51.078;12.108;2022-09-03T03:53:31;17.90;76.90
35700;DHT22;21818;51.078;12.108;2022-09-03T03:55:59;17.90;77.00
35700;DHT22;21818;51.078;12.108;2022-09-03T03:58:26;17.90;77.10
35700;DHT22;21818;51.078;12.108;2022-09-03T04:00:52;17.80;77.10
35700;DHT22;21818;51.078;12.108;2022-09-03T04:03:18;17.80;77.10
35700;DHT22;21818;51.078;12.108;2022-09-03T04:05:54;17.80;77.10
35700;DHT22;21818;51.078;12.108;2022-09-03T04:08:20;17.80;77.00
35700;DHT22;21818;51.078;12.108;2022-09-03T04:10:46;17.80;77.10
35700;DHT22;21818;51.078;12.108;2022-09-03T04:13:12;17.80;77.10
35700;DHT22;21818;51.078;12.108;2022-09-03T04:15:37;17.70;77.20
35700;DHT22;21818;51.078;12.108;2022-09-03T04:18:03;17.70;77.20
35700;DHT22;21818;51.078;12.108;2022-09-03T04:20:29;17.70;77.30
35700;DHT22;21818;51.078;12.108;2022-09-03T04:22:58;17.70;77.80
35700;DHT22;21818;51.078;12.108;2022-09-03T04:25:25;17.60;77.30
35700;DHT22;21818;51.078;12.108;2022-09-03T04:27:51;17.60;77.40
35700;DHT22;21818;51.078;12.108;2022-09-03T04:30:17;17.70;77.40
35700;DHT22;21818;51.078;12.108;2022-09-03T04:32:43;17.70;77.20
35700;DHT22;21818;51.078;12.108;2022-09-03T04:35:22;17.70;77.30
35700;DHT22;21818;51.078;12.108;2022-09-03T04:37:48;17.70;77.30
35700;DHT22;21818;51.078;12.108;2022-09-03T04:40:14;17.70;77.20
35700;DHT22;21818;51.078;12.108;2022-09-03T04:42:40;17.80;77.10
35700;DHT22;21818;51.078;12.108;2022-09-03T04:45:06;17.70;77.10
35700;DHT22;21818;51.078;12.108;2022-09-03T04:47:33;17.80;78.00
35700;DHT22;21818;51.078;12.108;2022-09-03T04:50:00;18.20;78.70
35700;DHT22;21818;51.078;12.108;2022-09-03T04:52:27;18.60;77.60
35700;DHT22;21818;51.078;12.108;2022-09-03T04:54:56;18.50;77.50
35700;DHT22;21818;51.078;12.108;2022-09-03T04:57:21;18.50;77.70
35700;DHT22;21818;51.078;12.108;2022-09-03T04:59:47;18.40;78.00
35700;DHT22;21818;51.078;12.108;2022-09-03T05:02:13;18.30;78.80
35700;DHT22;21818;51.078;12.108;2022-09-03T05:04:43;18.30;78.40
35700;DHT22;21818;51.078;12.108;2022-09-03T05:07:08;18.30;78.40
35700;DHT22;21818;51.078;12.108;2022-09-03T05:09:34;18.30;78.50
35700;DHT22;21818;51.078;12.108;2022-09-03T05:12:00;18.30;78.50
35700;DHT22;21818;51.078;12.108;2022-09-03T05:14:25;18.30;78.60
35700;DHT22;21818;51.078;12.108;2022-09-03T05:16:51;18.30;78.60
35700;DHT22;21818;51.078;12.108;2022-09-03T05:19:17;18.20;78.60
35700;DHT22;21818;51.078;12.108;2022-09-03T05:21:43;18.30;78.60
35700;DHT22;21818;51.078;12.108;2022-09-03T05:24:08;18.30;78.60
35700;DHT22;21818;51.078;12.108;2022-09-03T05:26:37;18.30;78.70
35700;DHT22;21818;51.078;12.108;2022-09-03T05:29:05;18.30;78.70
35700;DHT22;21818;51.078;12.108;2022-09-03T05:31:32;18.30;78.90
35700;DHT22;21818;51.078;12.108;2022-09-03T05:34:01;18.40;78.60
35700;DHT22;21818;51.078;12.108;2022-09-03T05:36:29;18.40;78.70
35700;DHT22;21818;51.078;12.108;2022-09-03T05:38:56;18.40;79.50
35700;DHT22;21818;51.078;12.108;2022-09-03T05:41:22;18.70;79.60
35700;DHT22;21818;51.078;12.108;2022-09-03T05:43:49;19.00;79.00
35700;DHT22;21818;51.078;12.108;2022-09-03T05:46:24;19.10;78.70
35700;DHT22;21818;51.078;12.108;2022-09-03T05:48:57;19.30;78.30
35700;DHT22;21818;51.078;12.108;2022-09-03T05:51:24;19.40;77.90
35700;DHT22;21818;51.078;12.108;2022-09-03T05:53:49;19.50;77.40
35700;DHT22;21818;51.078;12.108;2022-09-03T05:56:17;19.50;76.90
35700;DHT22;21818;51.078;12.108;2022-09-03T05:58:45;19.60;76.50
35700;DHT22;21818;51.078;12.108;2022-09-03T06:01:23;19.60;76.10
35700;DHT22;21818;51.078;12.108;2022-09-03T06:03:58;19.60;75.60
35700;DHT22;21818;51.078;12.108;2022-09-03T06:06:26;19.70;75.20
35700;DHT22;21818;51.078;12.108;2022-09-03T06:08:56;19.80;74.90
35700;DHT22;21818;51.078;12.108;2022-09-03T06:11:23;19.80;74.50
35700;DHT22;21818;51.078;12.108;2022-09-03T06:13:51;19.80;74.30
35700;DHT22;21818;51.078;12.108;2022-09-03T06:16:16;19.90;74.00
35700;DHT22;21818;51.078;12.108;2022-09-03T06:18:42;20.00;73.70
35700;DHT22;21818;51.078;12.108;2022-09-03T06:21:07;20.10;73.40
35700;DHT22;21818;51.078;12.108;2022-09-03T06:23:34;20.20;73.10
35700;DHT22;21818;51.078;12.108;2022-09-03T06:26:05;20.20;72.80
35700;DHT22;21818;51.078;12.108;2022-09-03T06:28:35;20.30;72.50
35700;DHT22;21818;51.078;12.108;2022-09-03T06:31:02;20.30;72.20
35700;DHT22;21818;51.078;12.108;2022-09-03T06:33:30;20.00;72.50
35700;DHT22;21818;51.078;12.108;2022-09-03T06:36:00;19.80;73.00
35700;DHT22;21818;51.078;12.108;2022-09-03T06:38:28;19.70;73.10
35700;DHT22;21818;51.078;12.108;2022-09-03T06:41:01;19.60;73.20
35700;DHT22;21818;51.078;12.108;2022-09-03T06:43:29;19.60;73.20
35700;DHT22;21818;51.078;12.108;2022-09-03T06:45:55;19.50;73.10
35700;DHT22;21818;51.078;12.108;2022-09-03T06:48:21;19.40;73.20
35700;DHT22;21818;51.078;12.108;2022-09-03T06:50:53;19.40;73.20
35700;DHT22;21818;51.078;12.108;2022-09-03T06:53:19;19.30;73.30
35700;DHT22;21818;51.078;12.108;2022-09-03T06:55:55;19.30;73.30
35700;DHT22;21818;51.078;12.108;2022-09-03T06:58:21;19.20;73.30
35700;DHT22;21818;51.078;12.108;2022-09-03T07:00:48;19.20;73.30
35700;DHT22;21818;51.078;12.108;2022-09-03T07:03:14;19.20;73.20
35700;DHT22;21818;51.078;12.108;2022-09-03T07:05:42;19.20;73.10
35700;DHT22;21818;51.078;12.108;2022-09-03T07:08:08;19.30;73.10
35700;DHT22;21818;51.078;12.108;2022-09-03T07:10:36;19.20;73.10
35700;DHT22;21818;51.078;12.108;2022-09-03T07:13:02;19.20;73.10
35700;DHT22;21818;51.078;12.108;2022-09-03T07:15:27;19.20;73.10
35700;DHT22;21818;51.078;12.108;2022-09-03T07:17:53;19.30;73.10
35700;DHT22;21818;51.078;12.108;2022-09-03T07:20:20;19.30;73.00
35700;DHT22;21818;51.078;12.108;2022-09-03T07:22:46;19.30;72.90
35700;DHT22;21818;51.078;12.108;2022-09-03T07:25:12;19.40;73.00
35700;DHT22;21818;51.078;12.108;2022-09-03T07:27:37;19.40;72.90
35700;DHT22;21818;51.078;12.108;2022-09-03T07:30:03;19.40;72.90
35700;DHT22;21818;51.078;12.108;2022-09-03T07:32:34;19.40;72.80
35700;DHT22;21818;51.078;12.108;2022-09-03T07:35:01;19.40;72.80
35700;DHT22;21818;51.078;12.108;2022-09-03T07:37:27;19.40;72.70
35700;DHT22;21818;51.078;12.108;2022-09-03T07:39:53;19.50;72.60
35700;DHT22;21818;51.078;12.108;2022-09-03T07:42:18;19.50;72.60
35700;DHT22;21818;51.078;12.108;2022-09-03T07:44:45;19.50;73.10
35700;DHT22;21818;51.078;12.108;2022-09-03T07:47:11;19.50;72.60
35700;DHT22;21818;51.078;12.108;2022-09-03T07:49:37;19.60;72.60
35700;DHT22;21818;51.078;12.108;2022-09-03T07:52:03;19.60;72.40
35700;DHT22;21818;51.078;12.108;2022-09-03T07:54:28;19.60;72.40
35700;DHT22;21818;51.078;12.108;2022-09-03T07:56:55;19.60;72.30
35700;DHT22;21818;51.078;12.108;2022-09-03T07:59:21;19.70;72.30
35700;DHT22;21818;51.078;12.108;2022-09-03T08:01:48;19.70;72.20
35700;DHT22;21818;51.078;12.108;2022-09-03T08:04:15;19.70;72.10
35700;DHT22;21818;51.078;12.108;2022-09-03T08:06:40;19.70;71.90
35700;DHT22;21818;51.078;12.108;2022-09-03T08:09:09;19.80;72.00
35700;DHT22;21818;51.078;12.108;2022-09-03T08:11:37;19.80;71.90
35700;DHT22;21818;51.078;12.108;2022-09-03T08:14:05;19.80;71.80
35700;DHT22;21818;51.078;12.108;2022-09-03T08:16:40;19.80;71.70
35700;DHT22;21818;51.078;12.108;2022-09-03T08:19:07;19.80;71.70
35700;DHT22;21818;51.078;12.108;2022-09-03T08:21:33;19.90;71.50
35700;DHT22;21818;51.078;12.108;2022-09-03T08:23:59;20.00;71.40
35700;DHT22;21818;51.078;12.108;2022-09-03T08:26:32;20.00;71.40
35700;DHT22;21818;51.078;12.108;2022-09-03T08:28:58;20.00;71.20
35700;DHT22;21818;51.078;12.108;2022-09-03T08:31:24;20.10;71.10
35700;DHT22;21818;51.078;12.108;2022-09-03T08:33:53;20.10;71.00
35700;DHT22;21818;51.078;12.108;2022-09-03T08:36:21;20.20;70.80
35700;DHT22;21818;51.078;12.108;2022-09-03T08:38:48;20.20;70.60
35700;DHT22;21818;51.078;12.108;2022-09-03T08:44:24;20.30;70.30
35700;DHT22;21818;51.078;12.108;2022-09-03T08:49:33;20.30;70.00
35700;DHT22;21818;51.078;12.108;2022-09-03T08:52:18;20.40;69.90
35700;DHT22;21818;51.078;12.108;2022-09-03T08:54:46;20.40;69.80
35700;DHT22;21818;51.078;12.108;2022-09-03T08:57:13;20.50;69.60
35700;DHT22;21818;51.078;12.108;2022-09-03T08:59:40;20.50;69.50
35700;DHT22;21818;51.078;12.108;2022-09-03T09:02:24;20.50;69.40
35700;DHT22;21818;51.078;12.108;2022-09-03T09:05:08;20.50;69.20
35700;DHT22;21818;51.078;12.108;2022-09-03T09:10:37;20.60;69.10
35700;DHT22;21818;51.078;12.108;2022-09-03T09:15:57;20.60;68.90
35700;DHT22;21818;51.078;12.108;2022-09-03T09:18:40;20.60;68.90
35700;DHT22;21818;51.078;12.108;2022-09-03T09:21:13;20.70;68.80
35700;DHT22;21818;51.078;12.108;2022-09-03T09:23:47;20.70;68.60
35700;DHT22;21818;51.078;12.108;2022-09-03T09:26:19;20.70;68.40
35700;DHT22;21818;51.078;12.108;2022-09-03T09:29:01;20.70;68.30
35700;DHT22;21818;51.078;12.108;2022-09-03T09:31:28;20.70;68.00
35700;DHT22;21818;51.078;12.108;2022-09-03T09:33:59;20.70;68.00
35700;DHT22;21818;51.078;12.108;2022-09-03T09:36:26;20.70;68.10
35700;DHT22;21818;51.078;12.108;2022-09-03T09:38:52;20.80;68.20
35700;DHT22;21818;51.078;12.108;2022-09-03T09:41:20;20.80;68.40
35700;DHT22;21818;51.078;12.108;2022-09-03T09:43:59;20.80;68.40
35700;DHT22;21818;51.078;12.108;2022-09-03T09:46:39;20.80;67.60
35700;DHT22;21818;51.078;12.108;2022-09-03T09:52:16;20.80;67.80
35700;DHT22;21818;51.078;12.108;2022-09-03T09:54:43;20.80;67.90
35700;DHT22;21818;51.078;12.108;2022-09-03T09:57:17;20.80;68.00
35700;DHT22;21818;51.078;12.108;2022-09-03T09:59:45;20.80;67.70
35700;DHT22;21818;51.078;12.108;2022-09-03T10:02:25;20.90;67.60
35700;DHT22;21818;51.078;12.108;2022-09-03T10:05:30;20.90;67.70
35700;DHT22;21818;51.078;12.108;2022-09-03T10:08:03;20.90;68.00
35700;DHT22;21818;51.078;12.108;2022-09-03T10:10:32;20.90;68.00
35700;DHT22;21818;51.078;12.108;2022-09-03T10:13:09;20.90;68.00
35700;DHT22;21818;51.078;12.108;2022-09-03T10:15:46;20.90;68.10
35700;DHT22;21818;51.078;12.108;2022-09-03T10:18:25;20.90;68.10
35700;DHT22;21818;51.078;12.108;2022-09-03T10:21:11;20.90;68.10
35700;DHT22;21818;51.078;12.108;2022-09-03T10:23:56;20.90;68.00
35700;DHT22;21818;51.078;12.108;2022-09-03T10:26:24;20.90;68.10
35700;DHT22;21818;51.078;12.108;2022-09-03T10:28:57;20.90;68.00
35700;DHT22;21818;51.078;12.108;2022-09-03T10:46:09;21.00;67.80
35700;DHT22;21818;51.078;12.108;2022-09-03T10:51:34;21.00;67.60
35700;DHT22;21818;51.078;12.108;2022-09-03T10:54:23;21.00;67.60
35700;DHT22;21818;51.078;12.108;2022-09-03T11:02:28;21.10;67.40
35700;DHT22;21818;51.078;12.108;2022-09-03T11:05:34;21.10;67.40
35700;DHT22;21818;51.078;12.108;2022-09-03T11:08:09;21.10;67.60
35700;DHT22;21818;51.078;12.108;2022-09-03T11:10:50;21.10;67.20
35700;DHT22;21818;51.078;12.108;2022-09-03T11:13:24;21.10;67.00
35700;DHT22;21818;51.078;12.108;2022-09-03T11:15:52;21.10;66.80
35700;DHT22;21818;51.078;12.108;2022-09-03T11:20:56;21.20;66.70
35700;DHT22;21818;51.078;12.108;2022-09-03T11:23:26;21.20;66.60
35700;DHT22;21818;51.078;12.108;2022-09-03T11:25:59;21.20;66.50
35700;DHT22;21818;51.078;12.108;2022-09-03T11:28:57;21.20;67.00
35700;DHT22;21818;51.078;12.108;2022-09-03T11:31:52;21.20;66.30
35700;DHT22;21818;51.078;12.108;2022-09-03T11:34:43;21.20;66.30
35700;DHT22;21818;51.078;12.108;2022-09-03T11:37:24;21.20;66.30
35700;DHT22;21818;51.078;12.108;2022-09-03T11:40:12;21.20;66.20
35700;DHT22;21818;51.078;12.108;2022-09-03T11:42:40;21.20;66.10
35700;DHT22;21818;51.078;12.108;2022-09-03T11:47:47;21.30;66.00
35700;DHT22;21818;51.078;12.108;2022-09-03T11:50:22;21.30;65.80
35700;DHT22;21818;51.078;12.108;2022-09-03T11:52:50;21.50;65.40
35700;DHT22;21818;51.078;12.108;2022-09-03T11:55:29;22.00;63.90
35700;DHT22;21818;51.078;12.108;2022-09-03T11:57:56;22.40;62.80
35700;DHT22;21818;51.078;12.108;2022-09-03T12:00:21;22.70;61.90
35700;DHT22;21818;51.078;12.108;2022-09-03T12:02:55;22.90;61.20
35700;DHT22;21818;51.078;12.108;2022-09-03T12:08:44;23.20;60.20
35700;DHT22;21818;51.078;12.108;2022-09-03T12:19:41;23.40;59.90
35700;DHT22;21818;51.078;12.108;2022-09-03T12:22:13;23.30;60.10
35700;DHT22;21818;51.078;12.108;2022-09-03T12:24:40;23.30;60.40
35700;DHT22;21818;51.078;12.108;2022-09-03T12:27:14;23.20;59.90
35700;DHT22;21818;51.078;12.108;2022-09-03T12:29:49;23.20;61.20
35700;DHT22;21818;51.078;12.108;2022-09-03T12:32:20;23.10;61.20
35700;DHT22;21818;51.078;12.108;2022-09-03T12:34:45;23.10;61.60
35700;DHT22;21818;51.078;12.108;2022-09-03T12:37:32;23.10;61.70
35700;DHT22;21818;51.078;12.108;2022-09-03T12:40:00;23.00;61.20
35700;DHT22;21818;51.078;12.108;2022-09-03T12:42:28;23.00;61.80
35700;DHT22;21818;51.078;12.108;2022-09-03T12:45:03;23.10;61.80
35700;DHT22;21818;51.078;12.108;2022-09-03T12:47:29;23.10;61.70
35700;DHT22;21818;51.078;12.108;2022-09-03T12:49:57;23.10;61.60
35700;DHT22;21818;51.078;12.108;2022-09-03T12:52:37;23.10;61.40
35700;DHT22;21818;51.078;12.108;2022-09-03T12:58:21;23.20;60.60
35700;DHT22;21818;51.078;12.108;2022-09-03T13:01:40;23.30;60.60
35700;DHT22;21818;51.078;12.108;2022-09-03T13:06:27;23.40;60.60
35700;DHT22;21818;51.078;12.108;2022-09-03T13:08:59;23.40;60.40
35700;DHT22;21818;51.078;12.108;2022-09-03T13:11:27;23.40;60.00
35700;DHT22;21818;51.078;12.108;2022-09-03T13:14:03;23.50;59.90
35700;DHT22;21818;51.078;12.108;2022-09-03T13:27:58;23.70;58.80
35700;DHT22;21818;51.078;12.108;2022-09-03T13:30:40;23.70;58.50
35700;DHT22;21818;51.078;12.108;2022-09-03T13:33:31;23.80;58.40
35700;DHT22;21818;51.078;12.108;2022-09-03T13:36:16;23.80;58.00
35700;DHT22;21818;51.078;12.108;2022-09-03T13:38:53;23.90;57.70
35700;DHT22;21818;51.078;12.108;2022-09-03T13:41:47;23.90;57.70
35700;DHT22;21818;51.078;12.108;2022-09-03T13:44:19;23.90;57.20
35700;DHT22;21818;51.078;12.108;2022-09-03T13:46:57;24.00;57.50
35700;DHT22;21818;51.078;12.108;2022-09-03T13:49:46;24.00;57.20
35700;DHT22;21818;51.078;12.108;2022-09-03T13:55:40;24.10;57.00
35700;DHT22;21818;51.078;12.108;2022-09-03T14:03:49;24.20;56.30
35700;DHT22;21818;51.078;12.108;2022-09-03T14:09:19;24.20;56.10
35700;DHT22;21818;51.078;12.108;2022-09-03T14:20:03;24.10;55.90
35700;DHT22;21818;51.078;12.108;2022-09-03T14:22:55;24.10;55.80
35700;DHT22;21818;51.078;12.108;2022-09-03T14:25:24;24.10;55.80
35700;DHT22;21818;51.078;12.108;2022-09-03T14:27:50;24.10;55.70
35700;DHT22;21818;51.078;12.108;2022-09-03T14:33:59;24.00;55.70
35700;DHT22;21818;51.078;12.108;2022-09-03T14:36:07;24.00;55.60
35700;DHT22;21818;51.078;12.108;2022-09-03T14:39:10;24.00;55.60
35700;DHT22;21818;51.078;12.108;2022-09-03T14:42:02;24.10;55.30
35700;DHT22;21818;51.078;12.108;2022-09-03T14:44:37;24.20;55.30
35700;DHT22;21818;51.078;12.108;2022-09-03T14:50:02;24.20;55.40
35700;DHT22;21818;51.078;12.108;2022-09-03T14:58:39;24.00;55.40
35700;DHT22;21818;51.078;12.108;2022-09-03T15:01:27;24.00;55.40
35700;DHT22;21818;51.078;12.108;2022-09-03T15:04:44;24.00;55.30
35700;DHT22;21818;51.078;12.108;2022-09-03T15:13:09;24.10;55.10
35700;DHT22;21818;51.078;12.108;2022-09-03T15:21:50;24.10;55.00
35700;DHT22;21818;51.078;12.108;2022-09-03T15:24:29;24.00;55.00
35700;DHT22;21818;51.078;12.108;2022-09-03T15:27:22;24.00;55.20
35700;DHT22;21818;51.078;12.108;2022-09-03T15:29:59;24.00;55.20
35700;DHT22;21818;51.078;12.108;2022-09-03T15:32:47;23.90;55.20
35700;DHT22;21818;51.078;12.108;2022-09-03T15:38:18;23.90;55.30
35700;DHT22;21818;51.078;12.108;2022-09-03T15:43:26;23.80;55.40
35700;DHT22;21818;51.078;12.108;2022-09-03T15:51:12;23.80;55.50
35700;DHT22;21818;51.078;12.108;2022-09-03T15:53:50;23.80;55.50
35700;DHT22;21818;51.078;12.108;2022-09-03T15:59:11;23.70;55.60
35700;DHT22;21818;51.078;12.108;2022-09-03T16:02:02;23.70;55.60
35700;DHT22;21818;51.078;12.108;2022-09-03T16:15:33;23.60;55.70
35700;DHT22;21818;51.078;12.108;2022-09-03T16:20:39;23.60;55.80
35700;DHT22;21818;51.078;12.108;2022-09-03T16:23:24;23.60;55.90
35700;DHT22;21818;51.078;12.108;2022-09-03T16:25:56;23.60;55.90
35700;DHT22;21818;51.078;12.108;2022-09-03T16:28:46;23.60;55.90
35700;DHT22;21818;51.078;12.108;2022-09-03T16:45:26;23.50;56.20
35700;DHT22;21818;51.078;12.108;2022-09-03T16:53:35;23.50;56.40
35700;DHT22;21818;51.078;12.108;2022-09-03T17:02:37;23.50;56.60
35700;DHT22;21818;51.078;12.108;2022-09-03T17:05:47;23.50;56.70
35700;DHT22;21818;51.078;12.108;2022-09-03T17:11:06;23.40;56.70
35700;DHT22;21818;51.078;12.108;2022-09-03T17:19:56;23.40;56.80
35700;DHT22;21818;51.078;12.108;2022-09-03T17:25:34;23.40;56.60
35700;DHT22;21818;51.078;12.108;2022-09-03T17:31:05;23.40;56.50
35700;DHT22;21818;51.078;12.108;2022-09-03T17:36:25;23.40;56.40
35700;DHT22;21818;51.078;12.108;2022-09-03T17:42:03;23.30;56.40
35700;DHT22;21818;51.078;12.108;2022-09-03T17:51:06;23.30;56.30
35700;DHT22;21818;51.078;12.108;2022-09-03T17:53:44;23.30;56.30
35700;DHT22;21818;51.078;12.108;2022-09-03T17:56:29;23.30;56.30
35700;DHT22;21818;51.078;12.108;2022-09-03T17:59:23;23.30;56.20
35700;DHT22;21818;51.078;12.108;2022-09-03T18:04:46;23.30;56.00
35700;DHT22;21818;51.078;12.108;2022-09-03T18:07:23;23.30;56.10
35700;DHT22;21818;51.078;12.108;2022-09-03T18:10:17;23.30;56.10
35700;DHT22;21818;51.078;12.108;2022-09-03T18:15:34;23.10;54.80
35700;DHT22;21818;51.078;12.108;2022-09-03T18:18:06;22.90;55.10
35700;DHT22;21818;51.078;12.108;2022-09-03T18:20:44;22.80;54.90
35700;DHT22;21818;51.078;12.108;2022-09-03T18:27:00;22.60;54.90
35700;DHT22;21818;51.078;12.108;2022-09-03T18:30:08;22.50;55.10
35700;DHT22;21818;51.078;12.108;2022-09-03T18:32:53;22.40;54.70
35700;DHT22;21818;51.078;12.108;2022-09-03T18:35:38;22.40;55.20
35700;DHT22;21818;51.078;12.108;2022-09-03T18:38:34;22.30;55.10
35700;DHT22;21818;51.078;12.108;2022-09-03T18:57:06;22.00;55.70
35700;DHT22;21818;51.078;12.108;2022-09-03T19:00:12;22.00;56.00
35700;DHT22;21818;51.078;12.108;2022-09-03T19:07:02;21.90;56.50
35700;DHT22;21818;51.078;12.108;2022-09-03T19:13:00;21.80;56.90
35700;DHT22;21818;51.078;12.108;2022-09-03T19:16:10;21.70;57.30
35700;DHT22;21818;51.078;12.108;2022-09-03T19:21:53;21.70;57.50
35700;DHT22;21818;51.078;12.108;2022-09-03T19:24:39;21.70;57.60
35700;DHT22;21818;51.078;12.108;2022-09-03T19:33:24;21.60;57.90
35700;DHT22;21818;51.078;12.108;2022-09-03T19:45:20;21.50;58.20
35700;DHT22;21818;51.078;12.108;2022-09-03T19:48:39;21.50;58.40
35700;DHT22;21818;51.078;12.108;2022-09-03T19:54:37;21.40;59.50
35700;DHT22;21818;51.078;12.108;2022-09-03T19:57:23;21.30;59.30
35700;DHT22;21818;51.078;12.108;2022-09-03T20:00:09;21.30;59.40
35700;DHT22;21818;51.078;12.108;2022-09-03T20:02:54;21.30;59.60
35700;DHT22;21818;51.078;12.108;2022-09-03T20:05:38;21.20;59.80
35700;DHT22;21818;51.078;12.108;2022-09-03T20:08:24;21.20;60.00
35700;DHT22;21818;51.078;12.108;2022-09-03T20:11:17;21.20;60.10
35700;DHT22;21818;51.078;12.108;2022-09-03T20:13:43;21.20;60.30
35700;DHT22;21818;51.078;12.108;2022-09-03T20:16:38;21.20;60.50
35700;DHT22;21818;51.078;12.108;2022-09-03T20:19:19;21.10;60.50
35700;DHT22;21818;51.078;12.108;2022-09-03T20:22:05;21.20;60.70
35700;DHT22;21818;51.078;12.108;2022-09-03T20:27:32;21.10;60.80
35700;DHT22;21818;51.078;12.108;2022-09-03T20:30:09;21.00;60.90
35700;DHT22;21818;51.078;12.108;2022-09-03T20:32:58;21.00;61.00
35700;DHT22;21818;51.078;12.108;2022-09-03T20:35:51;20.90;61.10
35700;DHT22;21818;51.078;12.108;2022-09-03T20:44:12;20.90;61.60
35700;DHT22;21818;51.078;12.108;2022-09-03T20:53:04;20.80;62.10
35700;DHT22;21818;51.078;12.108;2022-09-03T20:55:27;20.70;62.20
35700;DHT22;21818;51.078;12.108;2022-09-03T21:00:34;20.70;62.50
35700;DHT22;21818;51.078;12.108;2022-09-03T21:03:13;20.60;62.60
35700;DHT22;21818;51.078;12.108;2022-09-03T21:11:34;20.60;62.80
35700;DHT22;21818;51.078;12.108;2022-09-03T21:20:04;20.60;63.20
35700;DHT22;21818;51.078;12.108;2022-09-03T21:25:12;20.60;63.20
35700;DHT22;21818;51.078;12.108;2022-09-03T21:27:46;20.50;63.30